Map

Track Data

SID SEASON NUMBER BASIN SUBBASIN NAME ISO_TIME NATURE LAT LON WMO_WIND WMO_PRES WMO_AGENCY TRACK_TYPE DIST2LAND LANDFALL IFLAG USA_AGENCY USA_ATCF_ID USA_LAT USA_LON USA_RECORD USA_STATUS USA_WIND USA_PRES USA_SSHS USA_R34_NE USA_R34_SE USA_R34_SW USA_R34_NW USA_R50_NE USA_R50_SE USA_R50_SW USA_R50_NW USA_R64_NE USA_R64_SE USA_R64_SW USA_R64_NW USA_POCI USA_ROCI USA_RMW USA_EYE TOKYO_LAT TOKYO_LON TOKYO_GRADE TOKYO_WIND TOKYO_PRES TOKYO_R50_DIR TOKYO_R50_LONG TOKYO_R50_SHORT TOKYO_R30_DIR TOKYO_R30_LONG TOKYO_R30_SHORT TOKYO_LAND CMA_LAT CMA_LON CMA_CAT CMA_WIND CMA_PRES HKO_LAT HKO_LON HKO_CAT HKO_WIND HKO_PRES NEWDELHI_LAT NEWDELHI_LON NEWDELHI_GRADE NEWDELHI_WIND NEWDELHI_PRES NEWDELHI_CI NEWDELHI_DP NEWDELHI_POCI REUNION_LAT REUNION_LON REUNION_TYPE REUNION_WIND REUNION_PRES REUNION_TNUM REUNION_CI REUNION_RMW REUNION_R34_NE REUNION_R34_SE REUNION_R34_SW REUNION_R34_NW REUNION_R50_NE REUNION_R50_SE REUNION_R50_SW REUNION_R50_NW REUNION_R64_NE REUNION_R64_SE REUNION_R64_SW REUNION_R64_NW BOM_LAT BOM_LON BOM_TYPE BOM_WIND BOM_PRES BOM_TNUM BOM_CI BOM_RMW BOM_R34_NE BOM_R34_SE BOM_R34_SW BOM_R34_NW BOM_R50_NE BOM_R50_SE BOM_R50_SW BOM_R50_NW BOM_R64_NE BOM_R64_SE BOM_R64_SW BOM_R64_NW BOM_ROCI BOM_POCI BOM_EYE BOM_POS_METHOD BOM_PRES_METHOD NADI_LAT NADI_LON NADI_CAT NADI_WIND NADI_PRES WELLINGTON_LAT WELLINGTON_LON WELLINGTON_WIND WELLINGTON_PRES DS824_LAT DS824_LON DS824_STAGE DS824_WIND DS824_PRES TD9636_LAT TD9636_LON TD9636_STAGE TD9636_WIND TD9636_PRES TD9635_LAT TD9635_LON TD9635_WIND TD9635_PRES TD9635_ROCI NEUMANN_LAT NEUMANN_LON NEUMANN_CLASS NEUMANN_WIND NEUMANN_PRES MLC_LAT MLC_LON MLC_CLASS MLC_WIND MLC_PRES USA_GUST BOM_GUST BOM_GUST_PER REUNION_GUST REUNION_GUST_PER USA_SEAHGT USA_SEARAD_NE USA_SEARAD_SE USA_SEARAD_SW USA_SEARAD_NW STORM_SPEED STORM_DIR
1863270N21267 1863 24 NA GM NOT_NAMED 1863-09-26 12:00:00 TS 21.3000 -93.5000 main 313 313 _____________O -1 21.3000 -93.5000 TD 30 9 343
1863270N21267 1863 24 NA GM NOT_NAMED 1863-09-26 15:00:00 TS 21.7500 -93.6498 main 349 349 _____________P -1 21.7500 -93.6498 TD 30 9 343
1863270N21267 1863 24 NA GM NOT_NAMED 1863-09-26 18:00:00 TS 22.2000 -93.8000 main 367 359 _____________O -1 22.2000 -93.8000 TD 30 9 343
1863270N21267 1863 24 NA GM NOT_NAMED 1863-09-26 21:00:00 TS 22.6500 -93.9501 main 357 357 _____________P -1 22.6500 -93.9501 TD 30 9 343
1863270N21267 1863 24 NA GM NOT_NAMED 1863-09-27 00:00:00 TS 23.1000 -94.1000 main 369 366 _____________O -1 23.1000 -94.1000 TD 30 10 343
1863270N21267 1863 24 NA GM NOT_NAMED 1863-09-27 03:00:00 TS 23.5575 -94.2501 main 356 331 _____________P -1 23.5575 -94.2501 TD 30 9 343
1863270N21267 1863 24 NA GM NOT_NAMED 1863-09-27 06:00:00 TS 24.0000 -94.4000 main 331 294 _____________O -1 24.0000 -94.4000 TD 30 9 340
1863270N21267 1863 24 NA GM NOT_NAMED 1863-09-27 09:00:00 TS 24.4075 -94.5798 main 294 266 _____________P -1 24.4075 -94.5798 TD 32 8 341
1863270N21267 1863 24 NA GM NOT_NAMED 1863-09-27 12:00:00 TS 24.8000 -94.7000 main 266 254 _____________O -1 24.8000 -94.7000 TS 35 8 354
1863270N21267 1863 24 NA GM NOT_NAMED 1863-09-27 15:00:00 TS 25.2075 -94.6728 main 254 252 _____________P -1 25.2075 -94.6728 TS 35 8 6
1863270N21267 1863 24 NA GM NOT_NAMED 1863-09-27 18:00:00 TS 25.6000 -94.6000 main 254 250 _____________O -1 25.6000 -94.6000 TS 35 8 5
1863270N21267 1863 24 NA GM NOT_NAMED 1863-09-27 21:00:00 TS 25.9575 -94.5999 main 249 249 _____________P -1 25.9575 -94.5999 TS 37 7 0
1863270N21267 1863 24 NA GM NOT_NAMED 1863-09-28 00:00:00 TS 26.3000 -94.6000 main 251 251 _____________O -1 26.3000 -94.6000 TS 40 7 3
1863270N21267 1863 24 NA GM NOT_NAMED 1863-09-28 03:00:00 TS 26.6500 -94.5501 main 252 229 _____________P -1 26.6500 -94.5501 TS 42 7 7
1863270N21267 1863 24 NA GM NOT_NAMED 1863-09-28 06:00:00 TS 27.0000 -94.5000 main 229 199 _____________O -1 27.0000 -94.5000 TS 45 7 4
1863270N21267 1863 24 NA GM NOT_NAMED 1863-09-28 09:00:00 TS 27.3650 -94.4999 main 189 160 _____________P -1 27.3650 -94.4999 TS 47 7 0
1863270N21267 1863 24 NA GM NOT_NAMED 1863-09-28 12:00:00 TS 27.7000 -94.5000 main 160 130 _____________O -1 27.7000 -94.5000 TS 50 6 4
1863270N21267 1863 24 NA GM NOT_NAMED 1863-09-28 15:00:00 TS 27.9650 -94.4501 main 130 118 _____________P -1 27.9650 -94.4501 TS 52 5 10
1863270N21267 1863 24 NA GM NOT_NAMED 1863-09-28 18:00:00 TS 28.2000 -94.4000 main 118 102 _____________O -1 28.2000 -94.4000 TS 55 5 4
1863270N21267 1863 24 NA GM NOT_NAMED 1863-09-28 21:00:00 TS 28.4500 -94.3999 main 95 59 _____________P -1 28.4500 -94.3999 TS 57 6 319
1863270N21267 1863 24 NA GM NOT_NAMED 1863-09-29 00:00:00 TS 28.6333 -94.8333 60 hurdat_atl main 59 36 O____________O hurdat_atl AL091863 28.5000 -95.7000 TS 60 0 28.7000 -94.4000 TS 60 6 309
1863270N21267 1863 24 NA GM NOT_NAMED 1863-09-29 03:00:00 TS 28.8238 -94.9338 main 36 29 P____________P AL091863 28.6975 -95.5101 TS 60 0 28.9500 -94.3575 TS 60 4 351
1863270N21267 1863 24 NA GM NOT_NAMED 1863-09-29 06:00:00 TS 29.0200 -94.9000 60 hurdat_atl main 29 14 O____________O hurdat_atl AL091863 28.9000 -95.3000 TS 60 0 29.2000 -94.3000 TS 60 4 17
1863270N21267 1863 24 NA GM NOT_NAMED 1863-09-29 09:00:00 TS 29.2292 -94.7908 main 14 9 P____________P AL091863 29.1075 -95.0575 TS 60 0 29.4725 -94.2575 TS 60 5 32
1863270N21267 1863 24 NA GM NOT_NAMED 1863-09-29 12:00:00 TS 29.4333 -94.6000 60 hurdat_atl main 11 0 O____________O hurdat_atl AL091863 29.3000 -94.8000 L TS 60 0 29.7000 -94.2000 TS 60 5 43
1863270N21267 1863 24 NA GM NOT_NAMED 1863-09-29 15:00:00 TS 29.5866 -94.4099 main 0 0 P____________P AL091863 29.4649 -94.5574 TS 55 0 29.8300 -94.1150 TS 55 4 52
1863270N21267 1863 24 NA NA NOT_NAMED 1863-09-29 18:00:00 TS 29.7000 -94.2000 50 hurdat_atl main 0 0 O____________O hurdat_atl AL091863 29.6000 -94.3000 TS 50 0 29.9000 -94.0000 TS 50 4 63
1863270N21267 1863 24 NA GM NOT_NAMED 1863-09-29 21:00:00 TS 29.7908 -93.9574 main 0 0 P____________P AL091863 29.7075 -94.0074 TS 50 0 29.9575 -93.8575 TS 50 5 69
1863270N21267 1863 24 NA NA NOT_NAMED 1863-09-30 00:00:00 TS 29.8667 -93.7000 50 hurdat_atl main 0 0 O____________O hurdat_atl AL091863 29.8000 -93.7000 TS 50 0 30.0000 -93.7000 TS 50 5 70
1863270N21267 1863 24 NA NA NOT_NAMED 1863-09-30 03:00:00 TS 29.9550 -93.4475 main 0 0 P____________P AL091863 29.9074 -93.4000 TS 50 0 30.0500 -93.5425 TS 50 5 69
1863270N21267 1863 24 NA NA NOT_NAMED 1863-09-30 06:00:00 TS 30.0333 -93.2000 50 hurdat_atl main 0 0 O____________O hurdat_atl AL091863 30.0000 -93.1000 TS 50 0 30.1000 -93.4000 TS 50 4 71
1863270N21267 1863 24 NA NA NOT_NAMED 1863-09-30 09:00:00 TS 30.0906 -92.9866 main 0 0 P____________P AL091863 30.0574 -92.7999 TS 45 0 30.1571 -93.3600 TS 45 4 76
1863270N21267 1863 24 NA NA NOT_NAMED 1863-09-30 12:00:00 MX 30.1333 -92.7333 40 hurdat_atl main 0 0 O____________O hurdat_atl AL091863 30.1000 -92.5000 EX 40 -4 30.2000 -93.2000 TS 40 5 82
1863270N21267 1863 24 NA NA NOT_NAMED 1863-09-30 15:00:00 MX 30.1667 -92.3724 main 0 0 P____________P AL091863 30.1499 -92.2000 EX 40 -4 30.2004 -92.7173 TS 40 7 84
1863270N21267 1863 24 NA NA NOT_NAMED 1863-09-30 18:00:00 MX 30.2000 -91.9667 40 hurdat_atl main 0 0 O____________O hurdat_atl AL091863 30.2000 -91.9000 EX 40 -4 30.2000 -92.1000 TS 40 7 83
1863270N21267 1863 24 NA NA NOT_NAMED 1863-09-30 21:00:00 MX 30.2499 -91.5834 main 0 0 P____________P AL091863 30.2499 -91.6000 EX 40 -4 30.2498 -91.5502 TS 40 7 81
1863270N21267 1863 24 NA NA NOT_NAMED 1863-10-01 00:00:00 MX 30.3000 -91.2000 40 hurdat_atl main 0 0 O____________O hurdat_atl AL091863 30.3000 -91.3000 EX 40 -4 30.3000 -91.0000 TS 40 7 83
1863270N21267 1863 24 NA NA NOT_NAMED 1863-10-01 03:00:00 MX 30.3332 -90.8166 main 0 0 P____________P AL091863 30.3499 -91.0000 EX 40 -4 30.2998 -90.4498 TS 40 7 84
1863270N21267 1863 24 NA NA NOT_NAMED 1863-10-01 06:00:00 MX 30.3667 -90.4333 40 hurdat_atl main 0 0 O____________O hurdat_atl AL091863 30.4000 -90.7000 EX 40 -4 30.3000 -89.9000 TS 40 7 84
1863270N21267 1863 24 NA NA NOT_NAMED 1863-10-01 09:00:00 MX 30.3989 -90.0621 main 0 0 P____________P AL091863 30.4499 -90.4000 EX 40 -4 30.2967 -89.3865 TS 40 7 83
1863270N21267 1863 24 NA NA NOT_NAMED 1863-10-01 12:00:00 MX 30.4600 -89.5800 40 hurdat_atl main 0 0 O____________O hurdat_atl AL091863 30.5000 -90.1000 EX 40 -4 30.4000 -88.8000 TS 40 9 77
1863270N21267 1863 24 NA NA NOT_NAMED 1863-10-01 15:00:00 MX 30.6030 -88.9957 main 0 0 P____________P AL091863 30.5501 -89.8001 EX 40 -4 30.6559 -88.1913 TS 40 15 71
1863270N21267 1863 24 NA NA NOT_NAMED 1863-10-01 18:00:00 MX 30.9333 -87.9667 40 hurdat_atl main 0 0 O____________O hurdat_atl AL091863 30.6000 -89.5000 EX 40 -4 31.1000 -87.2000 TS 40 33 70
1863270N21267 1863 24 NA NA NOT_NAMED 1863-10-01 21:00:00 TS 31.7136 -85.3483 main 0 0 _____________P AL091863 EX -4 31.7136 -85.3483 TS 40 41 69
1863270N21267 1863 24 NA NA NOT_NAMED 1863-10-02 00:00:00 TS 32.4000 -83.5000 main 0 0 _____________O -1 32.4000 -83.5000 TS 40 27 60
1863270N21267 1863 24 NA NA NOT_NAMED 1863-10-02 03:00:00 TS 33.0374 -82.5805 main 0 0 _____________P -1 33.0374 -82.5805 TS 37 18 44
1863270N21267 1863 24 NA NA NOT_NAMED 1863-10-02 06:00:00 TS 33.7000 -82.0000 main 0 0 _____________O -1 33.7000 -82.0000 TS 35 18 39
1863270N21267 1863 24 NA NA NOT_NAMED 1863-10-02 09:00:00 TS 34.3995 -81.2492 main 0 0 _____________P -1 34.3995 -81.2492 TS 35 19 41
1863270N21267 1863 24 NA NA NOT_NAMED 1863-10-02 12:00:00 ET 35.1000 -80.5000 main 0 0 _____________O -1 35.1000 -80.5000 EX 35 18 42
1863270N21267 1863 24 NA NA NOT_NAMED 1863-10-02 15:00:00 ET 35.7495 -79.7484 main 0 0 _____________P -1 35.7495 -79.7484 EX 35 18 43
1863270N21267 1863 24 NA NA NOT_NAMED 1863-10-02 18:00:00 ET 36.4000 -79.0000 main 0 0 _____________O -1 36.4000 -79.0000 EX 35 18 42
1863270N21267 1863 24 NA NA NOT_NAMED 1863-10-02 21:00:00 ET 37.0696 -78.2481 main 0 0 _____________P -1 37.0696 -78.2481 EX 35 18 41
1863270N21267 1863 24 NA NA NOT_NAMED 1863-10-03 00:00:00 ET 37.8000 -77.5000 main 0 0 _____________O -1 37.8000 -77.5000 EX 35 20 34
1863270N21267 1863 24 NA NA NOT_NAMED 1863-10-03 03:00:00 ET 38.6921 -76.8463 main 0 0 _____________P -1 38.6921 -76.8463 EX 35 21 35
1863270N21267 1863 24 NA NA NOT_NAMED 1863-10-03 06:00:00 ET 39.5000 -76.0000 main 0 0 _____________O -1 39.5000 -76.0000 EX 35 22 54
1863270N21267 1863 24 NA NA NOT_NAMED 1863-10-03 09:00:00 ET 39.9722 -74.5769 main 0 0 _____________P -1 39.9722 -74.5769 EX 35 23 70
1863270N21267 1863 24 NA NA NOT_NAMED 1863-10-03 12:00:00 ET 40.3000 -73.2000 main 41 13 _____________O -1 40.3000 -73.2000 EX 35 18 66
1863270N21267 1863 24 NA NA NOT_NAMED 1863-10-03 15:00:00 ET 40.6975 -72.4184 main 20 20 _____________P -1 40.6975 -72.4184 EX 35 12 49
1863270N21267 1863 24 NA NA NOT_NAMED 1863-10-03 18:00:00 ET 41.1000 -72.0000 main 22 0 _____________O -1 41.1000 -72.0000 EX 35 10 33
1863270N21267 1863 24 NA NA NOT_NAMED 1863-10-03 21:00:00 ET 41.4995 -71.7166 main 0 0 _____________P -1 41.4995 -71.7166 EX 35 9 20
1863270N21267 1863 24 NA NA NOT_NAMED 1863-10-04 00:00:00 ET 41.9000 -71.6000 main 0 0 _____________O -1 41.9000 -71.6000 EX 35 8 10
1863270N21267 1863 24 NA NA NOT_NAMED 1863-10-04 03:00:00 ET 42.2999 -71.5197 main 0 0 _____________P -1 42.2999 -71.5197 EX 35 8 5
1863270N21267 1863 24 NA NA NOT_NAMED 1863-10-04 06:00:00 ET 42.7000 -71.5000 main 0 0 _____________O -1 42.7000 -71.5000 EX 35 8 1
1863270N21267 1863 24 NA NA NOT_NAMED 1863-10-04 09:00:00 ET 43.1000 -71.4976 main 0 0 _____________P -1 43.1000 -71.4976 EX 35 8 1
1863270N21267 1863 24 NA NA NOT_NAMED 1863-10-04 12:00:00 ET 43.5000 -71.5000 main 0 _____________O -1 43.5000 -71.5000 EX 35 8 0

About IBTrACS Database

This database is a web-friendly format of International Best Track Archive for Climate Stewardship (IBTrACS), a global best track data archive curated by NOAA dating back to 1842.

Updated: 2021-10-21